createdAt,value
2022-08-04T00:01:06.435Z,1008.2
2022-08-04T00:02:15.611Z,1008.3
2022-08-04T00:03:24.769Z,1008.2
2022-08-04T00:04:33.942Z,1008.2
2022-08-04T00:05:43.136Z,1008.2
2022-08-04T00:06:52.299Z,1008.2
2022-08-04T00:08:01.466Z,1008.2
2022-08-04T00:09:10.651Z,1008.2
2022-08-04T00:10:19.813Z,1008.2
2022-08-04T00:11:28.992Z,1008.1
2022-08-04T00:12:38.162Z,1008.2
2022-08-04T00:13:47.346Z,1008.2
2022-08-04T00:14:56.501Z,1008.2
2022-08-04T00:16:04.691Z,1008.2
2022-08-04T00:17:13.857Z,1008.2
2022-08-04T00:18:23.044Z,1008.2
2022-08-04T00:19:32.209Z,1008.2
2022-08-04T00:20:41.375Z,1008.2
2022-08-04T00:21:50.544Z,1008.2
2022-08-04T00:22:59.715Z,1008.2
2022-08-04T00:24:08.892Z,1008.2
2022-08-04T00:25:18.058Z,1008.2
2022-08-04T00:26:27.228Z,1008.2
2022-08-04T00:27:36.421Z,1008.2
2022-08-04T00:28:45.581Z,1008.2
2022-08-04T00:29:54.749Z,1008.2
2022-08-04T00:31:02.939Z,1008.2
2022-08-04T00:32:12.119Z,1008.2
2022-08-04T00:33:21.284Z,1008.1
2022-08-04T00:34:30.452Z,1008.2
2022-08-04T00:35:39.633Z,1008.2
2022-08-04T00:36:48.806Z,1008.1
2022-08-04T00:37:57.967Z,1008.2
2022-08-04T00:39:07.146Z,1008.2
2022-08-04T00:40:16.333Z,1008.2
2022-08-04T00:41:25.488Z,1008.2
2022-08-04T00:42:34.663Z,1008.2
2022-08-04T00:43:43.831Z,1008.2
2022-08-04T00:44:53.012Z,1008.2
2022-08-04T00:46:01.199Z,1008.1
2022-08-04T00:47:10.400Z,1008.2
2022-08-04T00:48:19.555Z,1008.1
2022-08-04T00:49:28.717Z,1008.1
2022-08-04T00:50:37.902Z,1008.1
2022-08-04T00:51:47.070Z,1008.1
2022-08-04T00:52:56.276Z,1008.1
2022-08-04T00:54:05.401Z,1008.1
2022-08-04T00:55:14.576Z,1008.1
2022-08-04T00:56:23.743Z,1008.1
2022-08-04T00:57:32.914Z,1008.1
2022-08-04T00:58:42.090Z,1008.1
2022-08-04T00:59:51.257Z,1008.1
2022-08-04T01:00:59.453Z,1008.1
2022-08-04T01:02:08.626Z,1008.1
2022-08-04T01:03:17.788Z,1008.1
2022-08-04T01:04:26.959Z,1008.1
2022-08-04T01:05:36.144Z,1008.1
2022-08-04T01:06:45.312Z,1008
2022-08-04T01:07:54.501Z,1008
2022-08-04T01:09:03.681Z,1008
2022-08-04T01:10:12.829Z,1008
2022-08-04T01:11:22.002Z,1008
2022-08-04T01:12:31.173Z,1008
2022-08-04T01:13:40.343Z,1008
2022-08-04T01:14:49.513Z,1008
2022-08-04T01:15:57.712Z,1008
2022-08-04T01:17:06.879Z,1008
2022-08-04T01:18:16.080Z,1007.9
2022-08-04T01:19:24.259Z,1007.9
2022-08-04T01:20:32.429Z,1008
2022-08-04T01:21:41.612Z,1007.9
2022-08-04T01:22:50.784Z,1007.9
2022-08-04T01:23:58.977Z,1007.9
2022-08-04T01:25:07.168Z,1007.9
2022-08-04T01:26:16.327Z,1007.9
2022-08-04T01:27:25.522Z,1007.9
2022-08-04T01:28:34.680Z,1007.9
2022-08-04T01:29:43.854Z,1007.9
2022-08-04T01:30:53.024Z,1007.9
2022-08-04T01:32:02.209Z,1007.9
2022-08-04T01:33:11.366Z,1007.9
2022-08-04T01:34:20.533Z,1007.8
2022-08-04T01:35:29.710Z,1007.8
2022-08-04T01:36:38.909Z,1007.8
2022-08-04T01:37:48.061Z,1007.9
2022-08-04T01:38:57.229Z,1007.8
2022-08-04T01:40:05.421Z,1007.8
2022-08-04T01:41:14.581Z,1007.8
2022-08-04T01:42:23.758Z,1007.8
2022-08-04T01:43:32.930Z,1007.8
2022-08-04T01:44:42.106Z,1007.8
2022-08-04T01:45:51.269Z,1007.8
2022-08-04T01:47:00.451Z,1007.7
2022-08-04T01:48:09.629Z,1007.8
2022-08-04T01:49:18.791Z,1007.7
2022-08-04T01:50:27.981Z,1007.8
2022-08-04T01:51:37.148Z,1007.8
2022-08-04T01:52:46.313Z,1007.7
2022-08-04T01:53:55.509Z,1007.7
2022-08-04T01:55:03.669Z,1007.7
2022-08-04T01:56:11.860Z,1007.7
2022-08-04T01:57:21.057Z,1007.7
2022-08-04T01:58:30.208Z,1007.7
2022-08-04T01:59:39.389Z,1007.7
2022-08-04T02:00:47.581Z,1007.7
2022-08-04T02:01:55.780Z,1007.7
2022-08-04T02:03:04.945Z,1007.7
2022-08-04T02:04:14.118Z,1007.7
2022-08-04T02:05:23.281Z,1007.7
2022-08-04T02:06:32.449Z,1007.7
2022-08-04T02:07:41.640Z,1007.7
2022-08-04T02:08:50.796Z,1007.7
2022-08-04T02:09:59.968Z,1007.6
2022-08-04T02:11:09.167Z,1007.6
2022-08-04T02:12:18.326Z,1007.6
2022-08-04T02:13:27.488Z,1007.6
2022-08-04T02:14:36.667Z,1007.6
2022-08-04T02:15:45.819Z,1007.6
2022-08-04T02:16:54.024Z,1007.5
2022-08-04T02:18:03.209Z,1007.5
2022-08-04T02:19:12.368Z,1007.5
2022-08-04T02:20:21.535Z,1007.5
2022-08-04T02:21:30.723Z,1007.6
2022-08-04T02:22:39.882Z,1007.5
2022-08-04T02:23:49.044Z,1007.6
2022-08-04T02:24:58.226Z,1007.5
2022-08-04T02:26:07.386Z,1007.5
2022-08-04T02:27:16.570Z,1007.5
2022-08-04T02:28:25.745Z,1007.5
2022-08-04T02:29:34.908Z,1007.5
2022-08-04T02:30:44.090Z,1007.5
2022-08-04T02:31:52.275Z,1007.5
2022-08-04T02:33:01.461Z,1007.5
2022-08-04T02:34:10.628Z,1007.4
2022-08-04T02:35:19.796Z,1007.4
2022-08-04T02:36:28.956Z,1007.4
2022-08-04T02:37:38.126Z,1007.4
2022-08-04T02:38:47.308Z,1007.4
2022-08-04T02:39:56.485Z,1007.3
2022-08-04T02:41:05.650Z,1007.4
2022-08-04T02:42:14.826Z,1007.3
2022-08-04T02:43:24.001Z,1007.3
2022-08-04T02:44:33.165Z,1007.3
2022-08-04T02:45:42.346Z,1007.3
2022-08-04T02:46:50.548Z,1007.3
2022-08-04T02:47:59.708Z,1007.3
2022-08-04T02:49:08.886Z,1007.3
2022-08-04T02:50:18.034Z,1007.3
2022-08-04T02:51:27.217Z,1007.3
2022-08-04T02:52:36.390Z,1007.3
2022-08-04T02:53:45.581Z,1007.2
2022-08-04T02:54:54.733Z,1007.3
2022-08-04T02:56:03.904Z,1007.3
2022-08-04T02:57:13.086Z,1007.2
2022-08-04T02:58:22.252Z,1007.2
2022-08-04T02:59:31.442Z,1007.3
2022-08-04T03:00:40.589Z,1007.2
2022-08-04T03:01:48.783Z,1007.2
2022-08-04T03:02:57.950Z,1007.2
2022-08-04T03:04:07.119Z,1007.1
2022-08-04T03:05:16.313Z,1007.2
2022-08-04T03:06:25.480Z,1007.1
2022-08-04T03:07:34.642Z,1007.1
2022-08-04T03:08:43.817Z,1007.2
2022-08-04T03:09:52.983Z,1007.1
2022-08-04T03:11:02.163Z,1007.2
2022-08-04T03:12:11.338Z,1007.2
2022-08-04T03:13:20.504Z,1007.1
2022-08-04T03:14:29.680Z,1007.1
2022-08-04T03:15:37.873Z,1007.1
2022-08-04T03:16:47.035Z,1007.1
2022-08-04T03:17:56.217Z,1007.1
2022-08-04T03:19:05.383Z,1007.1
2022-08-04T03:20:14.554Z,1007
2022-08-04T03:21:23.731Z,1007
2022-08-04T03:22:32.897Z,1007
2022-08-04T03:23:42.075Z,1007.1
2022-08-04T03:24:51.252Z,1007
2022-08-04T03:26:00.424Z,1007
2022-08-04T03:27:09.600Z,1007
2022-08-04T03:28:18.759Z,1007
2022-08-04T03:29:27.935Z,1007
2022-08-04T03:30:36.135Z,1007
2022-08-04T03:31:45.290Z,1007.1
2022-08-04T03:32:54.481Z,1007.1
2022-08-04T03:34:03.646Z,1007
2022-08-04T03:35:12.812Z,1007
2022-08-04T03:36:21.979Z,1007
2022-08-04T03:37:31.158Z,1007
2022-08-04T03:38:40.331Z,1006.9
2022-08-04T03:39:49.514Z,1007
2022-08-04T03:40:58.679Z,1007
2022-08-04T03:42:07.858Z,1007
2022-08-04T03:43:17.019Z,1007
2022-08-04T03:44:26.193Z,1006.9
2022-08-04T03:45:34.369Z,1007
2022-08-04T03:46:43.558Z,1006.9
2022-08-04T03:49:01.895Z,1006.9
2022-08-04T03:50:11.073Z,1006.9
2022-08-04T03:51:20.241Z,1006.9
2022-08-04T03:52:29.417Z,1006.9
2022-08-04T03:53:38.594Z,1006.9
2022-08-04T03:54:47.746Z,1006.9
2022-08-04T03:55:56.920Z,1006.9
2022-08-04T03:57:06.106Z,1006.9
2022-08-04T03:58:15.267Z,1006.9
2022-08-04T03:59:24.431Z,1006.8
2022-08-04T04:00:32.628Z,1006.9
2022-08-04T04:01:41.799Z,1006.8
2022-08-04T04:02:50.965Z,1006.8
2022-08-04T04:03:59.166Z,1006.8
2022-08-04T04:05:07.354Z,1006.8
2022-08-04T04:06:16.528Z,1006.9
2022-08-04T04:07:24.729Z,1006.8
2022-08-04T04:08:32.905Z,1006.8
2022-08-04T04:09:42.083Z,1006.9
2022-08-04T04:10:51.253Z,1006.8
2022-08-04T04:12:00.442Z,1006.8
2022-08-04T04:13:09.591Z,1006.8
2022-08-04T04:14:18.766Z,1006.9
2022-08-04T04:15:27.939Z,1006.9
2022-08-04T04:16:37.124Z,1006.8
2022-08-04T04:17:46.283Z,1006.8
2022-08-04T04:18:55.481Z,1006.8
2022-08-04T04:20:04.655Z,1006.8
2022-08-04T04:21:13.811Z,1006.9
2022-08-04T04:22:22.977Z,1006.9
2022-08-04T04:23:31.165Z,1006.8
2022-08-04T04:24:40.344Z,1006.8
2022-08-04T04:25:49.500Z,1006.8
2022-08-04T04:26:58.673Z,1006.7
2022-08-04T04:28:07.851Z,1006.7
2022-08-04T04:29:17.026Z,1006.8
2022-08-04T04:30:26.198Z,1006.7
2022-08-04T04:31:34.395Z,1006.7
2022-08-04T04:32:42.579Z,1006.7
2022-08-04T04:33:50.773Z,1006.7
2022-08-04T04:34:58.961Z,1006.7
2022-08-04T04:36:08.130Z,1006.7
2022-08-04T04:37:17.307Z,1006.7
2022-08-04T04:38:26.485Z,1006.7
2022-08-04T04:39:35.655Z,1006.7
2022-08-04T04:40:44.820Z,1006.7
2022-08-04T04:41:53.995Z,1006.7
2022-08-04T04:43:03.166Z,1006.7
2022-08-04T04:44:12.340Z,1006.7
2022-08-04T04:45:21.523Z,1006.7
2022-08-04T04:46:30.683Z,1006.8
2022-08-04T04:47:39.861Z,1006.7
2022-08-04T04:48:49.035Z,1006.7
2022-08-04T04:49:57.211Z,1006.7
2022-08-04T04:51:06.380Z,1006.6
2022-08-04T04:52:15.564Z,1006.7
2022-08-04T04:53:24.742Z,1006.7
2022-08-04T04:54:33.911Z,1006.7
2022-08-04T04:55:43.084Z,1006.6
2022-08-04T04:56:52.251Z,1006.7
2022-08-04T04:58:01.427Z,1006.6
2022-08-04T04:59:10.618Z,1006.6
2022-08-04T05:00:19.774Z,1006.6
2022-08-04T05:01:28.936Z,1006.6
2022-08-04T05:02:38.129Z,1006.7
2022-08-04T05:03:47.292Z,1006.6
2022-08-04T05:04:56.455Z,1006.6
2022-08-04T05:06:04.654Z,1006.6
2022-08-04T05:07:13.825Z,1006.6
2022-08-04T05:08:22.986Z,1006.6
2022-08-04T05:09:32.177Z,1006.6
2022-08-04T05:10:41.338Z,1006.6
2022-08-04T05:11:50.512Z,1006.6
2022-08-04T05:12:59.686Z,1006.6
2022-08-04T05:14:08.874Z,1006.6
2022-08-04T05:15:18.031Z,1006.7
2022-08-04T05:16:27.199Z,1006.6
2022-08-04T05:17:36.376Z,1006.6
2022-08-04T05:18:45.561Z,1006.6
2022-08-04T05:19:54.710Z,1006.5
2022-08-04T05:21:02.903Z,1006.6
2022-08-04T05:22:12.083Z,1006.6
2022-08-04T05:23:21.264Z,1006.6
2022-08-04T05:24:30.430Z,1006.5
2022-08-04T05:25:39.592Z,1006.6
2022-08-04T05:26:48.766Z,1006.6
2022-08-04T05:27:57.946Z,1006.5
2022-08-04T05:29:07.118Z,1006.5
2022-08-04T05:30:16.276Z,1006.6
2022-08-04T05:31:25.446Z,1006.6
2022-08-04T05:32:34.629Z,1006.5
2022-08-04T05:33:43.805Z,1006.5
2022-08-04T05:34:52.973Z,1006.5
2022-08-04T05:36:01.167Z,1006.5
2022-08-04T05:37:10.382Z,1006.5
2022-08-04T05:38:19.510Z,1006.5
2022-08-04T05:39:28.688Z,1006.5
2022-08-04T05:40:37.859Z,1006.5
2022-08-04T05:41:47.031Z,1006.5
2022-08-04T05:42:56.206Z,1006.5
2022-08-04T05:44:05.389Z,1006.4
2022-08-04T05:45:14.551Z,1006.5
2022-08-04T05:46:23.710Z,1006.5
2022-08-04T05:47:32.911Z,1006.4
2022-08-04T05:48:42.063Z,1006.4
2022-08-04T05:49:51.232Z,1006.4
2022-08-04T05:50:59.429Z,1006.4
2022-08-04T05:52:08.595Z,1006.4
2022-08-04T05:53:17.769Z,1006.5
2022-08-04T05:54:26.938Z,1006.4
2022-08-04T05:55:36.109Z,1006.5
2022-08-04T05:56:45.298Z,1006.4
2022-08-04T05:57:54.465Z,1006.4
2022-08-04T05:59:03.629Z,1006.4
2022-08-04T06:00:12.802Z,1006.4
2022-08-04T06:01:21.974Z,1006.4
2022-08-04T06:02:31.140Z,1006.4
2022-08-04T06:03:40.311Z,1006.3
2022-08-04T06:04:49.487Z,1006.4
2022-08-04T06:05:57.676Z,1006.4
2022-08-04T06:07:06.906Z,1006.4
2022-08-04T06:08:16.019Z,1006.4
2022-08-04T06:09:25.186Z,1006.3
2022-08-04T06:10:34.376Z,1006.4
2022-08-04T06:11:43.533Z,1006.4
2022-08-04T06:12:52.725Z,1006.4
2022-08-04T06:14:01.887Z,1006.4
2022-08-04T06:15:11.058Z,1006.4
2022-08-04T06:16:20.235Z,1006.4
2022-08-04T06:17:29.402Z,1006.4
2022-08-04T06:18:38.578Z,1006.4
2022-08-04T06:19:47.753Z,1006.4
2022-08-04T06:20:55.938Z,1006.4
2022-08-04T06:22:05.122Z,1006.5
2022-08-04T06:23:14.285Z,1006.4
2022-08-04T06:24:23.457Z,1006.4
2022-08-04T06:25:32.644Z,1006.4
2022-08-04T06:26:41.809Z,1006.4
2022-08-04T06:27:50.979Z,1006.4
2022-08-04T06:29:00.152Z,1006.4
2022-08-04T06:30:09.316Z,1006.4
2022-08-04T06:31:18.482Z,1006.4
2022-08-04T06:32:27.663Z,1006.4
2022-08-04T06:33:36.846Z,1006.4
2022-08-04T06:34:46.007Z,1006.5
2022-08-04T06:35:54.209Z,1006.5
2022-08-04T06:37:03.373Z,1006.5
2022-08-04T06:38:12.549Z,1006.5
2022-08-04T06:39:21.711Z,1006.5
2022-08-04T06:40:30.901Z,1006.5
2022-08-04T06:41:40.061Z,1006.5
2022-08-04T06:42:49.247Z,1006.5
2022-08-04T06:43:58.402Z,1006.5
2022-08-04T06:45:07.573Z,1006.5
2022-08-04T06:46:16.758Z,1006.5
2022-08-04T06:47:25.931Z,1006.5
2022-08-04T06:48:35.100Z,1006.5
2022-08-04T06:49:44.274Z,1006.6
2022-08-04T06:50:52.453Z,1006.5
2022-08-04T06:52:01.635Z,1006.5
2022-08-04T06:53:10.797Z,1006.5
2022-08-04T06:54:19.985Z,1006.5
2022-08-04T06:55:29.153Z,1006.5
2022-08-04T06:56:38.319Z,1006.5
2022-08-04T06:57:47.499Z,1006.5
2022-08-04T06:58:56.683Z,1006.5
2022-08-04T07:00:05.845Z,1006.5
2022-08-04T07:01:15.025Z,1006.5
2022-08-04T07:02:24.190Z,1006.5
2022-08-04T07:03:33.372Z,1006.5
2022-08-04T07:04:42.529Z,1006.4
2022-08-04T07:05:50.730Z,1006.4
2022-08-04T07:06:58.907Z,1006.5
2022-08-04T07:08:08.095Z,1006.4
2022-08-04T07:09:17.271Z,1006.4
2022-08-04T07:10:26.450Z,1006.4
2022-08-04T07:11:35.608Z,1006.4
2022-08-04T07:12:44.779Z,1006.4
2022-08-04T07:13:52.988Z,1006.4
2022-08-04T07:15:01.161Z,1006.4
2022-08-04T07:16:10.333Z,1006.4
2022-08-04T07:17:18.525Z,1006.4
2022-08-04T07:18:26.756Z,1006.4
2022-08-04T07:19:35.886Z,1006.3
2022-08-04T07:20:45.067Z,1006.4
2022-08-04T07:21:54.244Z,1006.4
2022-08-04T07:23:03.398Z,1006.3
2022-08-04T07:24:12.570Z,1006.3
2022-08-04T07:25:21.753Z,1006.3
2022-08-04T07:26:30.962Z,1006.3
2022-08-04T07:27:40.097Z,1006.3
2022-08-04T07:28:49.299Z,1006.3
2022-08-04T07:29:58.447Z,1006.3
2022-08-04T07:31:07.609Z,1006.3
2022-08-04T07:32:16.797Z,1006.3
2022-08-04T07:33:24.983Z,1006.3
2022-08-04T07:34:34.157Z,1006.3
2022-08-04T07:35:43.333Z,1006.3
2022-08-04T07:36:52.505Z,1006.3
2022-08-04T07:38:01.665Z,1006.2
2022-08-04T07:39:10.844Z,1006.2
2022-08-04T07:40:20.010Z,1006.3
2022-08-04T07:41:29.192Z,1006.3
2022-08-04T07:42:38.355Z,1006.3
2022-08-04T07:43:47.541Z,1006.3
2022-08-04T07:44:56.729Z,1006.3
2022-08-04T07:46:05.875Z,1006.3
2022-08-04T07:47:15.084Z,1006.3
2022-08-04T07:48:23.242Z,1006.3
2022-08-04T07:49:32.416Z,1006.3
2022-08-04T07:50:41.595Z,1006.3
2022-08-04T07:51:50.763Z,1006.3
2022-08-04T07:52:59.926Z,1006.3
2022-08-04T07:54:09.098Z,1006.3
2022-08-04T07:55:18.276Z,1006.3
2022-08-04T07:56:27.451Z,1006.3
2022-08-04T07:57:36.623Z,1006.3
2022-08-04T07:58:45.800Z,1006.3
2022-08-04T07:59:54.979Z,1006.3
2022-08-04T08:01:04.123Z,1006.3
2022-08-04T08:02:13.312Z,1006.2
2022-08-04T08:03:21.500Z,1006.2
2022-08-04T08:04:30.664Z,1006.2
2022-08-04T08:05:39.847Z,1006.3
2022-08-04T08:06:49.049Z,1006.3
2022-08-04T08:07:58.204Z,1006.3
2022-08-04T08:09:07.363Z,1006.3
2022-08-04T08:10:16.545Z,1006.3
2022-08-04T08:11:25.707Z,1006.3
2022-08-04T08:12:34.883Z,1006.3
2022-08-04T08:13:44.082Z,1006.3
2022-08-04T08:14:53.226Z,1006.3
2022-08-04T08:16:02.401Z,1006.3
2022-08-04T08:17:11.602Z,1006.2
2022-08-04T08:18:19.786Z,1006.3
2022-08-04T08:19:28.928Z,1006.3
2022-08-04T08:20:38.117Z,1006.2
2022-08-04T08:21:47.279Z,1006.2
2022-08-04T08:22:56.470Z,1006.2
2022-08-04T08:24:05.647Z,1006.2
2022-08-04T08:25:14.804Z,1006.2
2022-08-04T08:26:23.971Z,1006.2
2022-08-04T08:27:33.185Z,1006.3
2022-08-04T08:28:42.310Z,1006.2
2022-08-04T08:29:51.486Z,1006.2
2022-08-04T08:31:00.684Z,1006.2
2022-08-04T08:32:09.834Z,1006.2
2022-08-04T08:33:18.027Z,1006.2
2022-08-04T08:34:27.200Z,1006.2
2022-08-04T08:35:36.358Z,1006.1
2022-08-04T08:36:45.549Z,1006.1
2022-08-04T08:37:54.725Z,1006.1
2022-08-04T08:39:02.905Z,1006.1
2022-08-04T08:40:11.095Z,1006.1
2022-08-04T08:41:20.266Z,1006.1
2022-08-04T08:42:28.462Z,1006.1
2022-08-04T08:43:36.650Z,1006.2
2022-08-04T08:44:45.838Z,1006.1
2022-08-04T08:45:54.994Z,1006.1
2022-08-04T08:47:04.184Z,1006.1
2022-08-04T08:48:13.362Z,1006.1
2022-08-04T08:49:22.515Z,1006.1
2022-08-04T08:50:31.684Z,1006.1
2022-08-04T08:51:40.861Z,1006.2
2022-08-04T08:52:50.046Z,1006.2
2022-08-04T08:53:59.221Z,1006.2
2022-08-04T08:55:08.382Z,1006.1
2022-08-04T08:56:17.547Z,1006.1
2022-08-04T08:57:26.726Z,1006.1
2022-08-04T08:58:34.911Z,1006.2
2022-08-04T08:59:44.106Z,1006.1
2022-08-04T09:00:53.255Z,1006.1
2022-08-04T09:02:02.428Z,1006.1
2022-08-04T09:03:11.608Z,1006.1
2022-08-04T09:04:20.777Z,1006.1
2022-08-04T09:05:29.949Z,1006.1
2022-08-04T09:06:39.127Z,1006.1
2022-08-04T09:07:48.288Z,1006.1
2022-08-04T09:08:57.463Z,1006.1
2022-08-04T09:10:06.635Z,1006.1
2022-08-04T09:11:15.812Z,1006.1
2022-08-04T09:12:24.991Z,1006.1
2022-08-04T09:13:33.176Z,1006
2022-08-04T09:14:42.337Z,1006.1
2022-08-04T09:15:51.524Z,1006
2022-08-04T09:17:00.691Z,1006
2022-08-04T09:18:09.860Z,1006.1
2022-08-04T09:19:19.037Z,1006
2022-08-04T09:20:28.214Z,1006.1
2022-08-04T09:21:37.385Z,1006
2022-08-04T09:22:46.553Z,1006.1
2022-08-04T09:23:55.728Z,1006
2022-08-04T09:25:04.907Z,1006
2022-08-04T09:26:14.071Z,1006.1
2022-08-04T09:27:23.254Z,1006.1
2022-08-04T09:28:31.440Z,1006.1
2022-08-04T09:29:40.640Z,1006
2022-08-04T09:30:49.788Z,1006
2022-08-04T09:31:58.959Z,1006.1
2022-08-04T09:33:08.179Z,1006.1
2022-08-04T09:34:17.303Z,1006
2022-08-04T09:35:26.476Z,1006
2022-08-04T09:36:35.650Z,1006.1
2022-08-04T09:37:44.823Z,1006
2022-08-04T09:38:53.992Z,1006.1
2022-08-04T09:40:03.158Z,1006.1
2022-08-04T09:41:12.342Z,1006
2022-08-04T09:42:21.511Z,1006
2022-08-04T09:44:38.881Z,1006
2022-08-04T09:45:48.044Z,1006
2022-08-04T09:46:57.212Z,1006.1
2022-08-04T09:48:06.385Z,1006.1
2022-08-04T09:49:15.558Z,1006
2022-08-04T09:50:24.738Z,1006
2022-08-04T09:51:33.908Z,1006
2022-08-04T09:52:43.095Z,1006
2022-08-04T09:53:52.255Z,1005.9
2022-08-04T09:55:01.435Z,1006
2022-08-04T09:56:10.601Z,1005.9
2022-08-04T09:57:19.777Z,1005.9
2022-08-04T09:58:27.955Z,1006
2022-08-04T09:59:37.130Z,1005.9
2022-08-04T10:00:46.309Z,1005.9
2022-08-04T10:01:55.480Z,1005.9
2022-08-04T10:03:04.724Z,1006
2022-08-04T10:04:13.831Z,1006
2022-08-04T10:05:23.002Z,1006
2022-08-04T10:06:32.189Z,1006
2022-08-04T10:07:41.354Z,1005.9
2022-08-04T10:08:50.517Z,1006
2022-08-04T10:09:59.702Z,1005.9
2022-08-04T10:11:08.870Z,1005.9
2022-08-04T10:12:18.042Z,1005.9
2022-08-04T10:13:26.224Z,1005.9
2022-08-04T10:14:35.405Z,1005.9
2022-08-04T10:15:44.591Z,1005.9
2022-08-04T10:16:53.745Z,1005.9
2022-08-04T10:18:02.934Z,1005.9
2022-08-04T10:19:12.110Z,1005.9
2022-08-04T10:20:21.264Z,1005.8
2022-08-04T10:21:30.440Z,1005.9
2022-08-04T10:22:39.647Z,1005.9
2022-08-04T10:23:48.792Z,1005.9
2022-08-04T10:24:57.965Z,1005.9
2022-08-04T10:26:07.149Z,1005.9
2022-08-04T10:27:16.310Z,1006
2022-08-04T10:28:24.494Z,1006
2022-08-04T10:29:33.673Z,1006
2022-08-04T10:30:42.857Z,1005.9
2022-08-04T10:31:52.024Z,1006
2022-08-04T10:33:01.187Z,1006
2022-08-04T10:34:10.362Z,1005.9
2022-08-04T10:35:19.546Z,1006
2022-08-04T10:36:28.714Z,1006
2022-08-04T10:37:37.888Z,1006.1
2022-08-04T10:38:47.066Z,1006
2022-08-04T10:41:05.407Z,1006.1
2022-08-04T10:42:14.601Z,1006.1
2022-08-04T10:43:23.778Z,1006.1
2022-08-04T10:44:31.938Z,1006.1
2022-08-04T10:45:41.118Z,1006.1
2022-08-04T10:46:50.302Z,1006.1
2022-08-04T10:47:58.486Z,1006.1
2022-08-04T10:49:07.651Z,1006.1
2022-08-04T10:50:15.838Z,1006.1
2022-08-04T10:51:24.050Z,1006.2
2022-08-04T10:52:32.224Z,1006.1
2022-08-04T10:53:41.415Z,1006.2
2022-08-04T10:54:50.567Z,1006.1
2022-08-04T10:55:59.741Z,1006.2
2022-08-04T10:57:08.918Z,1006.2
2022-08-04T10:58:18.103Z,1006.2
2022-08-04T10:59:27.283Z,1006.2
2022-08-04T11:00:35.456Z,1006.2
2022-08-04T11:01:44.636Z,1006.2
2022-08-04T11:02:53.816Z,1006.1
2022-08-04T11:04:02.977Z,1006.2
2022-08-04T11:05:12.156Z,1006.2
2022-08-04T11:06:21.319Z,1006.1
2022-08-04T11:07:30.500Z,1006.2
2022-08-04T11:08:39.670Z,1006.2
2022-08-04T11:09:48.846Z,1006.2
2022-08-04T11:10:58.024Z,1006.2
2022-08-04T11:12:07.216Z,1006.2
2022-08-04T11:13:16.367Z,1006.3
2022-08-04T11:14:25.544Z,1006.2
2022-08-04T11:15:34.718Z,1006.2
2022-08-04T11:16:43.883Z,1006.3
2022-08-04T11:17:52.073Z,1006.2
2022-08-04T11:19:01.249Z,1006.3
2022-08-04T11:20:10.415Z,1006.2
2022-08-04T11:21:19.601Z,1006.3
2022-08-04T11:22:28.768Z,1006.2
2022-08-04T11:23:37.939Z,1006.2
2022-08-04T11:24:47.110Z,1006.3
2022-08-04T11:25:56.284Z,1006.2
2022-08-04T11:27:05.462Z,1006.2
2022-08-04T11:28:14.634Z,1006.3
2022-08-04T11:29:23.813Z,1006.2
2022-08-04T11:30:32.982Z,1006.2
2022-08-04T11:31:42.173Z,1006.2
2022-08-04T11:32:50.338Z,1006.2
2022-08-04T11:33:59.517Z,1006.2
2022-08-04T11:35:08.691Z,1006.3
2022-08-04T11:36:17.861Z,1006.2
2022-08-04T11:37:27.055Z,1006.2
2022-08-04T11:38:36.207Z,1006.3
2022-08-04T11:39:45.389Z,1006.3
2022-08-04T11:40:54.551Z,1006.2
2022-08-04T11:42:03.765Z,1006.3
2022-08-04T11:43:12.900Z,1006.3
2022-08-04T11:44:22.085Z,1006.3
2022-08-04T11:45:31.248Z,1006.3
2022-08-04T11:46:40.431Z,1006.3
2022-08-04T11:47:49.591Z,1006.3
2022-08-04T11:48:57.785Z,1006.3
2022-08-04T11:50:06.960Z,1006.3
2022-08-04T11:51:16.137Z,1006.3
2022-08-04T11:52:25.295Z,1006.3
2022-08-04T11:53:34.480Z,1006.3
2022-08-04T11:54:43.669Z,1006.3
2022-08-04T11:55:52.824Z,1006.3
2022-08-04T11:57:02.000Z,1006.3
2022-08-04T11:58:11.181Z,1006.3
2022-08-04T11:59:20.342Z,1006.3
2022-08-04T12:00:29.518Z,1006.4
2022-08-04T12:01:38.697Z,1006.3
2022-08-04T12:03:57.043Z,1006.3
2022-08-04T12:05:06.205Z,1006.4
2022-08-04T12:06:15.382Z,1006.3
2022-08-04T12:08:32.747Z,1006.4
2022-08-04T12:09:41.920Z,1006.4
2022-08-04T12:10:51.088Z,1006.4
2022-08-04T12:12:00.275Z,1006.4
2022-08-04T12:13:09.469Z,1006.5
2022-08-04T12:14:18.616Z,1006.5
2022-08-04T12:15:27.788Z,1006.5
2022-08-04T12:16:36.986Z,1006.5
2022-08-04T12:17:46.126Z,1006.4
2022-08-04T12:18:55.311Z,1006.5
2022-08-04T12:20:04.490Z,1006.5
2022-08-04T12:21:13.667Z,1006.5
2022-08-04T12:22:21.852Z,1006.5
2022-08-04T12:23:31.007Z,1006.5
2022-08-04T12:24:40.191Z,1006.6
2022-08-04T12:25:49.360Z,1006.6
2022-08-04T12:26:58.537Z,1006.6
2022-08-04T12:28:07.706Z,1006.6
2022-08-04T12:29:16.877Z,1006.5
2022-08-04T12:30:26.059Z,1006.6
2022-08-04T12:31:35.223Z,1006.6
2022-08-04T12:32:44.390Z,1006.6
2022-08-04T12:33:53.563Z,1006.6
2022-08-04T12:35:02.745Z,1006.7
2022-08-04T12:36:11.922Z,1006.7
2022-08-04T12:37:20.109Z,1006.6
2022-08-04T12:38:28.313Z,1006.6
2022-08-04T12:39:37.486Z,1006.6
2022-08-04T12:40:46.656Z,1006.6
2022-08-04T12:41:55.863Z,1006.6
2022-08-04T12:43:04.995Z,1006.6
2022-08-04T12:44:14.169Z,1006.6
2022-08-04T12:45:23.345Z,1006.7
2022-08-04T12:46:32.521Z,1006.7
2022-08-04T12:47:41.683Z,1006.7
2022-08-04T12:48:50.858Z,1006.7
2022-08-04T12:50:00.035Z,1006.7
2022-08-04T12:51:09.201Z,1006.8
2022-08-04T12:52:18.388Z,1006.8
2022-08-04T12:53:26.575Z,1006.8
2022-08-04T12:54:35.740Z,1006.8
2022-08-04T12:55:44.922Z,1007
2022-08-04T12:56:54.094Z,1007
2022-08-04T12:58:03.263Z,1007
2022-08-04T12:59:11.459Z,1007
2022-08-04T13:00:20.633Z,1007
2022-08-04T13:01:28.822Z,1006.9
2022-08-04T13:02:37.984Z,1006.9
2022-08-04T13:03:47.176Z,1006.9
2022-08-04T13:04:56.352Z,1006.9
2022-08-04T13:06:05.509Z,1006.9
2022-08-04T13:07:14.679Z,1006.9
2022-08-04T13:08:23.849Z,1006.9
2022-08-04T13:09:33.029Z,1006.9
2022-08-04T13:10:42.198Z,1006.9
2022-08-04T13:11:51.383Z,1006.9
2022-08-04T13:13:00.552Z,1006.8
2022-08-04T13:14:09.729Z,1006.8
2022-08-04T13:15:18.901Z,1006.8
2022-08-04T13:16:27.100Z,1006.8
2022-08-04T13:17:36.252Z,1006.8
2022-08-04T13:18:45.443Z,1006.9
2022-08-04T13:19:54.598Z,1006.9
2022-08-04T13:21:03.772Z,1006.9
2022-08-04T13:22:12.973Z,1006.9
2022-08-04T13:23:22.114Z,1006.9
2022-08-04T13:24:31.304Z,1007
2022-08-04T13:25:40.451Z,1007
2022-08-04T13:26:49.673Z,1007
2022-08-04T13:27:58.816Z,1007.1
2022-08-04T13:29:07.972Z,1007
2022-08-04T13:30:17.176Z,1007
2022-08-04T13:31:25.341Z,1007.1
2022-08-04T13:32:34.511Z,1007.1
2022-08-04T13:33:43.694Z,1007.1
2022-08-04T13:34:51.879Z,1007.1
2022-08-04T13:37:09.282Z,1007.1
2022-08-04T13:39:27.600Z,1007.1
2022-08-04T13:40:36.758Z,1007.1
2022-08-04T13:41:45.925Z,1007.1
2022-08-04T13:42:55.122Z,1007.1
2022-08-04T13:44:03.293Z,1007.1
2022-08-04T13:45:11.518Z,1007.1
2022-08-04T13:46:20.660Z,1007.1
2022-08-04T13:47:29.826Z,1007.1
2022-08-04T13:48:38.997Z,1007.1
2022-08-04T13:49:48.190Z,1007
2022-08-04T13:50:57.361Z,1007
2022-08-04T13:52:06.535Z,1007
2022-08-04T13:53:15.692Z,1006.9
2022-08-04T13:54:24.874Z,1007
2022-08-04T13:55:34.049Z,1007
2022-08-04T13:56:43.211Z,1006.9
2022-08-04T13:57:52.396Z,1006.9
2022-08-04T14:00:10.753Z,1006.9
2022-08-04T14:01:18.945Z,1006.9
2022-08-04T14:02:28.100Z,1006.9
2022-08-04T14:03:37.261Z,1006.9
2022-08-04T14:04:46.440Z,1006.9
2022-08-04T14:05:55.608Z,1006.8
2022-08-04T14:07:04.791Z,1006.9
2022-08-04T14:08:13.972Z,1006.9
2022-08-04T14:09:23.161Z,1006.9
2022-08-04T14:10:32.328Z,1006.9
2022-08-04T14:11:41.496Z,1006.8
2022-08-04T14:12:50.687Z,1006.8
2022-08-04T14:13:59.838Z,1006.9
2022-08-04T14:15:09.001Z,1006.9
2022-08-04T14:16:17.178Z,1006.8
2022-08-04T14:17:26.354Z,1006.8
2022-08-04T14:18:35.538Z,1006.9
2022-08-04T14:19:44.707Z,1006.8
2022-08-04T14:20:53.878Z,1006.8
2022-08-04T14:22:03.044Z,1006.7
2022-08-04T14:23:12.214Z,1006.7
2022-08-04T14:24:20.421Z,1006.7
2022-08-04T14:25:29.592Z,1006.8
2022-08-04T14:26:37.775Z,1006.8
2022-08-04T14:27:46.947Z,1006.8
2022-08-04T14:28:56.127Z,1006.7
2022-08-04T14:30:05.292Z,1006.8
2022-08-04T14:31:14.459Z,1006.7
2022-08-04T14:32:23.645Z,1006.8
2022-08-04T14:33:32.836Z,1006.7
2022-08-04T14:34:41.972Z,1006.7
2022-08-04T14:35:51.175Z,1006.7
2022-08-04T14:37:00.326Z,1006.8